createdAt,value
2022-11-16T00:02:11.561Z,4.70
2022-11-16T00:04:39.389Z,4.60
2022-11-16T00:07:07.394Z,4.50
2022-11-16T00:09:34.900Z,4.60
2022-11-16T00:12:04.860Z,4.70
2022-11-16T00:14:34.518Z,4.70
2022-11-16T00:17:02.744Z,4.60
2022-11-16T00:19:30.556Z,4.60
2022-11-16T00:21:58.640Z,4.50
2022-11-16T00:24:26.012Z,4.40
2022-11-16T00:26:54.978Z,4.40
2022-11-16T00:29:24.522Z,4.40
2022-11-16T00:31:53.610Z,4.40
2022-11-16T00:34:22.624Z,4.40
2022-11-16T00:36:50.107Z,4.40
2022-11-16T00:39:18.369Z,4.30
2022-11-16T00:41:47.687Z,4.30
2022-11-16T00:44:15.765Z,4.30
2022-11-16T00:46:43.124Z,4.20
2022-11-16T00:49:10.679Z,4.20
2022-11-16T00:51:38.635Z,4.20
2022-11-16T00:54:08.343Z,4.10
2022-11-16T00:56:37.988Z,4.10
2022-11-16T00:59:06.851Z,4.10
2022-11-16T01:01:34.614Z,4.10
2022-11-16T01:04:02.248Z,4.10
2022-11-16T01:06:29.623Z,4.00
2022-11-16T01:08:56.950Z,4.00
2022-11-16T01:11:43.545Z,4.00
2022-11-16T01:14:11.562Z,3.90
2022-11-16T01:16:38.964Z,3.80
2022-11-16T01:19:06.420Z,3.70
2022-11-16T01:21:34.405Z,3.70
2022-11-16T01:24:01.880Z,3.70
2022-11-16T01:26:29.300Z,3.70
2022-11-16T01:28:58.564Z,3.70
2022-11-16T01:31:27.604Z,3.70
2022-11-16T01:33:55.111Z,3.70
2022-11-16T01:36:26.352Z,3.80
2022-11-16T01:49:24.412Z,3.80
2022-11-16T02:01:37.935Z,3.80
2022-11-16T02:10:14.607Z,3.80
2022-11-16T02:15:45.978Z,3.90
2022-11-16T02:19:37.208Z,3.70
2022-11-16T02:32:43.568Z,3.70
2022-11-16T02:44:13.097Z,3.70
2022-11-16T02:46:44.272Z,3.60
2022-11-16T02:49:24.457Z,3.60
2022-11-16T02:51:54.339Z,3.80
2022-11-16T02:54:24.485Z,3.70
2022-11-16T02:57:03.154Z,3.70
2022-11-16T02:59:56.777Z,3.70
2022-11-16T03:02:35.221Z,3.70
2022-11-16T03:05:31.883Z,3.70
2022-11-16T03:08:25.697Z,3.70
2022-11-16T03:11:19.797Z,3.70
2022-11-16T03:13:49.457Z,3.80
2022-11-16T03:16:21.871Z,3.80
2022-11-16T03:18:52.309Z,3.80
2022-11-16T03:21:30.514Z,3.80
2022-11-16T03:23:58.690Z,3.80
2022-11-16T03:26:33.094Z,3.80
2022-11-16T03:29:07.602Z,3.80
2022-11-16T03:31:42.239Z,3.80
2022-11-16T03:34:18.445Z,3.80
2022-11-16T03:36:49.771Z,3.80
2022-11-16T03:39:30.186Z,3.80
2022-11-16T03:41:59.783Z,3.90
2022-11-16T03:44:28.950Z,3.90
2022-11-16T03:46:56.358Z,3.90
2022-11-16T03:49:57.203Z,3.80
2022-11-16T03:52:25.416Z,3.90
2022-11-16T03:54:52.931Z,3.90
2022-11-16T03:57:20.493Z,3.90
2022-11-16T03:59:53.919Z,3.90
2022-11-16T04:02:21.446Z,3.90
2022-11-16T04:05:09.405Z,3.90
2022-11-16T04:07:55.892Z,3.90
2022-11-16T04:10:42.090Z,3.90
2022-11-16T04:13:30.828Z,3.90
2022-11-16T04:16:16.958Z,3.90
2022-11-16T04:19:14.946Z,3.90
2022-11-16T04:22:06.390Z,3.90
2022-11-16T04:24:38.858Z,4.00
2022-11-16T04:27:29.751Z,4.00
2022-11-16T04:29:59.543Z,3.90
2022-11-16T04:33:05.832Z,3.90
2022-11-16T04:35:51.803Z,3.90
2022-11-16T04:38:19.211Z,3.90
2022-11-16T04:40:46.624Z,3.90
2022-11-16T04:43:14.275Z,3.90
2022-11-16T04:46:02.468Z,3.90
2022-11-16T04:48:49.412Z,3.90
2022-11-16T04:51:16.768Z,3.80
2022-11-16T04:53:44.136Z,3.90
2022-11-16T04:56:18.873Z,3.90
2022-11-16T04:58:47.232Z,4.00
2022-11-16T05:01:15.492Z,4.00
2022-11-16T05:03:43.925Z,4.00
2022-11-16T05:06:11.367Z,4.00
2022-11-16T05:08:38.841Z,4.10
2022-11-16T05:11:06.209Z,4.10
2022-11-16T05:13:33.824Z,4.10
2022-11-16T05:16:01.889Z,4.10
2022-11-16T05:18:29.370Z,4.20
2022-11-16T05:21:02.805Z,4.20
2022-11-16T05:23:55.218Z,4.20
2022-11-16T05:26:25.133Z,4.20
2022-11-16T05:28:54.165Z,4.20
2022-11-16T05:31:21.694Z,4.20
2022-11-16T05:33:49.360Z,4.20
2022-11-16T05:36:17.389Z,4.20
2022-11-16T05:38:44.807Z,4.20
2022-11-16T05:41:12.282Z,4.20
2022-11-16T05:43:39.719Z,4.20
2022-11-16T05:46:16.859Z,4.20
2022-11-16T05:48:44.293Z,4.30
2022-11-16T05:51:12.916Z,4.30
2022-11-16T05:53:40.338Z,4.30
2022-11-16T05:56:08.285Z,4.30
2022-11-16T05:58:39.152Z,4.30
2022-11-16T06:01:06.804Z,4.30
2022-11-16T06:03:36.234Z,4.30
2022-11-16T06:06:05.010Z,4.30
2022-11-16T06:08:32.828Z,4.30
2022-11-16T06:11:05.387Z,4.30
2022-11-16T06:13:35.431Z,4.30
2022-11-16T06:16:03.839Z,4.30
2022-11-16T06:18:32.699Z,4.40
2022-11-16T06:21:00.492Z,4.30
2022-11-16T06:23:27.906Z,4.40
2022-11-16T06:25:55.753Z,4.30
2022-11-16T06:28:25.659Z,4.40
2022-11-16T06:30:53.099Z,4.40
2022-11-16T06:33:21.496Z,4.40
2022-11-16T06:35:49.664Z,4.40
2022-11-16T06:38:23.241Z,4.40
2022-11-16T06:40:54.670Z,4.40
2022-11-16T06:43:24.940Z,4.40
2022-11-16T06:45:55.414Z,4.40
2022-11-16T06:48:23.324Z,4.50
2022-11-16T06:50:54.396Z,4.50
2022-11-16T06:53:28.750Z,4.60
2022-11-16T06:56:05.804Z,4.60
2022-11-16T06:58:38.218Z,4.60
2022-11-16T07:01:11.282Z,4.60
2022-11-16T07:03:40.920Z,4.70
2022-11-16T07:06:11.637Z,4.70
2022-11-16T07:08:40.795Z,4.70
2022-11-16T07:11:10.687Z,4.80
2022-11-16T07:13:39.070Z,4.80
2022-11-16T07:16:09.781Z,4.90
2022-11-16T07:18:51.201Z,4.90
2022-11-16T07:21:19.364Z,4.90
2022-11-16T07:23:46.781Z,4.90
2022-11-16T07:26:19.183Z,4.80
2022-11-16T07:29:09.853Z,4.80
2022-11-16T07:31:41.350Z,4.80
2022-11-16T07:34:26.375Z,4.90
2022-11-16T07:37:04.084Z,4.90
2022-11-16T07:39:31.591Z,4.90
2022-11-16T07:41:59.163Z,4.90
2022-11-16T07:44:46.253Z,4.90
2022-11-16T07:48:18.966Z,4.90
2022-11-16T07:51:07.551Z,4.80
2022-11-16T07:53:40.321Z,4.80
2022-11-16T07:56:08.698Z,4.80
2022-11-16T07:58:36.689Z,4.90
2022-11-16T08:01:07.286Z,4.90
2022-11-16T08:03:36.145Z,4.80
2022-11-16T08:06:08.700Z,4.80
2022-11-16T08:08:36.291Z,4.80
2022-11-16T08:11:06.276Z,4.90
2022-11-16T08:13:36.133Z,4.90
2022-11-16T08:16:15.524Z,4.90
2022-11-16T08:19:56.283Z,4.90
2022-11-16T08:22:24.618Z,4.90
2022-11-16T08:24:53.055Z,4.90
2022-11-16T08:27:20.534Z,4.90
2022-11-16T08:29:52.299Z,4.90
2022-11-16T08:32:19.824Z,4.90
2022-11-16T08:34:47.259Z,4.90
2022-11-16T08:37:15.806Z,4.90
2022-11-16T08:39:45.224Z,5.00
2022-11-16T08:42:12.646Z,5.00
2022-11-16T08:44:48.227Z,5.00
2022-11-16T08:47:18.706Z,5.10
2022-11-16T08:49:54.674Z,5.10
2022-11-16T08:52:23.292Z,5.10
2022-11-16T08:54:52.200Z,5.10
2022-11-16T08:57:19.711Z,5.20
2022-11-16T08:59:52.283Z,5.20
2022-11-16T09:02:25.284Z,5.20
2022-11-16T09:04:58.071Z,5.20
2022-11-16T09:07:25.568Z,5.20
2022-11-16T09:09:53.029Z,5.30
2022-11-16T09:12:20.451Z,5.20
2022-11-16T09:14:48.017Z,5.30
2022-11-16T09:17:18.882Z,5.40
2022-11-16T09:19:50.644Z,5.40
2022-11-16T09:22:18.288Z,5.40
2022-11-16T09:24:45.774Z,5.40
2022-11-16T09:27:13.299Z,5.50
2022-11-16T09:29:40.879Z,5.50
2022-11-16T09:32:08.376Z,5.40
2022-11-16T09:34:36.220Z,5.50
2022-11-16T09:37:03.721Z,5.40
2022-11-16T09:39:32.531Z,5.40
2022-11-16T09:42:22.647Z,5.50
2022-11-16T09:44:59.845Z,5.50
2022-11-16T09:47:51.037Z,5.50
2022-11-16T09:50:49.550Z,5.50
2022-11-16T09:53:31.780Z,5.60
2022-11-16T09:56:04.789Z,5.60
2022-11-16T09:58:41.357Z,5.60
2022-11-16T10:01:22.562Z,5.70
2022-11-16T10:04:32.593Z,5.60
2022-11-16T10:07:32.674Z,5.80
2022-11-16T10:10:05.210Z,5.90
2022-11-16T10:12:51.469Z,5.90
2022-11-16T10:15:36.709Z,6.00
2022-11-16T10:22:08.911Z,6.20
2022-11-16T10:25:15.586Z,6.30
2022-11-16T10:31:57.053Z,6.60
2022-11-16T10:37:55.887Z,6.80
2022-11-16T10:44:05.501Z,6.90
2022-11-16T10:47:21.737Z,6.80
2022-11-16T10:50:04.876Z,6.80
2022-11-16T10:52:42.044Z,6.90
2022-11-16T10:55:39.628Z,6.80
2022-11-16T10:58:14.238Z,6.80
2022-11-16T11:01:06.288Z,6.90
2022-11-16T11:03:41.550Z,6.90
2022-11-16T11:06:16.023Z,6.80
2022-11-16T11:08:52.118Z,6.90
2022-11-16T11:11:55.864Z,6.90
2022-11-16T11:14:37.884Z,7.00
2022-11-16T11:17:14.853Z,7.00
2022-11-16T11:20:14.856Z,7.10
2022-11-16T11:23:00.135Z,7.20
2022-11-16T11:26:16.098Z,7.30
2022-11-16T11:28:50.201Z,7.30
2022-11-16T11:31:34.424Z,7.40
2022-11-16T11:34:28.812Z,7.50
2022-11-16T11:37:02.545Z,7.50
2022-11-16T11:39:34.938Z,7.60
2022-11-16T11:42:12.950Z,7.70
2022-11-16T11:44:49.611Z,7.70
2022-11-16T11:47:57.908Z,7.80
2022-11-16T11:50:55.594Z,7.90
2022-11-16T11:54:34.761Z,8.10
2022-11-16T11:56:42.487Z,8.10
2022-11-16T11:59:18.187Z,8.20
2022-11-16T12:01:55.020Z,8.30
2022-11-16T12:04:55.863Z,8.30
2022-11-16T12:07:46.388Z,8.40
2022-11-16T12:10:41.763Z,8.50
2022-11-16T12:13:26.647Z,8.60
2022-11-16T12:16:31.860Z,8.70
2022-11-16T12:19:32.386Z,8.90
2022-11-16T12:22:17.942Z,8.90
2022-11-16T12:25:09.124Z,8.90
2022-11-16T12:28:11.383Z,9.00
2022-11-16T12:31:13.392Z,9.00
2022-11-16T12:33:47.584Z,9.10
2022-11-16T12:36:36.097Z,9.10
2022-11-16T12:39:15.753Z,9.10
2022-11-16T12:41:55.087Z,9.20
2022-11-16T12:44:30.944Z,9.20
2022-11-16T12:47:23.270Z,9.30
2022-11-16T12:50:07.196Z,9.30
2022-11-16T12:52:58.608Z,9.20
2022-11-16T12:55:30.452Z,9.20
2022-11-16T12:58:00.700Z,9.20
2022-11-16T13:00:29.680Z,9.20
2022-11-16T13:03:14.345Z,9.20
2022-11-16T13:05:57.851Z,9.30
2022-11-16T13:08:56.373Z,9.20
2022-11-16T13:11:31.884Z,9.20
2022-11-16T13:14:06.489Z,9.20
2022-11-16T13:16:34.600Z,9.20
2022-11-16T13:19:06.830Z,9.10
2022-11-16T13:21:56.989Z,9.10
2022-11-16T13:24:45.010Z,9.00
2022-11-16T13:27:25.297Z,9.00
2022-11-16T13:30:16.245Z,9.10
2022-11-16T13:32:46.606Z,9.00
2022-11-16T13:35:21.320Z,9.10
2022-11-16T13:37:50.781Z,9.10
2022-11-16T13:40:31.469Z,9.20
2022-11-16T13:43:10.690Z,9.20
2022-11-16T13:45:50.289Z,9.10
2022-11-16T13:48:36.385Z,9.10
2022-11-16T13:51:09.090Z,9.00
2022-11-16T13:56:29.369Z,8.80
2022-11-16T13:58:58.175Z,8.90
2022-11-16T14:01:26.602Z,8.90
2022-11-16T14:04:32.902Z,9.00
2022-11-16T14:07:03.809Z,9.00
2022-11-16T14:09:51.210Z,9.10
2022-11-16T14:12:41.839Z,9.00
2022-11-16T14:15:16.154Z,8.90
2022-11-16T14:17:59.377Z,8.80
2022-11-16T14:20:45.466Z,8.70
2022-11-16T14:23:43.682Z,8.70
2022-11-16T14:26:43.494Z,8.70
2022-11-16T14:29:29.131Z,8.70
2022-11-16T14:32:02.808Z,8.80
2022-11-16T14:39:14.592Z,8.70
2022-11-16T14:41:45.224Z,8.60
2022-11-16T14:44:17.335Z,8.60
2022-11-16T14:46:45.680Z,8.50
2022-11-16T14:49:16.031Z,8.50
2022-11-16T14:51:56.936Z,8.50
2022-11-16T14:54:32.274Z,8.50
2022-11-16T14:57:12.510Z,8.50
2022-11-16T14:59:39.815Z,8.50
2022-11-16T15:02:25.510Z,8.40
2022-11-16T15:04:54.396Z,8.50
2022-11-16T15:07:28.437Z,8.40
2022-11-16T15:09:59.238Z,8.30
2022-11-16T15:12:41.445Z,8.30
2022-11-16T15:15:11.782Z,8.20
2022-11-16T15:17:45.250Z,8.20
2022-11-16T15:20:23.249Z,8.20
2022-11-16T15:22:56.890Z,8.20
2022-11-16T15:25:42.073Z,8.10
2022-11-16T15:28:27.679Z,8.00
2022-11-16T15:30:58.865Z,8.00
2022-11-16T15:33:39.061Z,8.00
2022-11-16T15:36:30.691Z,7.90
2022-11-16T15:38:59.493Z,7.80
2022-11-16T15:41:29.247Z,7.70
2022-11-16T15:44:14.068Z,7.70
2022-11-16T15:46:44.444Z,7.70
2022-11-16T15:49:30.264Z,7.70
2022-11-16T15:52:00.963Z,7.70
2022-11-16T15:54:52.271Z,7.70
2022-11-16T15:57:21.956Z,7.60
2022-11-16T15:59:57.376Z,7.50
2022-11-16T16:02:28.483Z,7.50
2022-11-16T16:06:34.562Z,7.50
2022-11-16T16:09:06.605Z,7.50
2022-11-16T16:11:34.122Z,7.50
2022-11-16T16:14:03.286Z,7.40
2022-11-16T16:16:32.674Z,7.30
2022-11-16T16:19:08.188Z,7.30
2022-11-16T16:21:45.973Z,7.30
2022-11-16T16:24:58.846Z,7.30
2022-11-16T16:27:29.299Z,7.30
2022-11-16T16:29:58.180Z,7.40
2022-11-16T16:32:33.813Z,7.30
2022-11-16T16:35:45.441Z,7.30
2022-11-16T16:38:13.878Z,7.30
2022-11-16T16:40:41.178Z,7.30
2022-11-16T16:43:08.537Z,7.30
2022-11-16T16:45:42.990Z,7.20
2022-11-16T16:48:12.490Z,7.10
2022-11-16T16:50:39.843Z,7.10
2022-11-16T16:53:10.206Z,7.10
2022-11-16T16:55:37.918Z,7.00
2022-11-16T16:58:06.130Z,7.00
2022-11-16T17:00:33.460Z,7.00
2022-11-16T17:03:00.795Z,6.90
2022-11-16T17:06:10.895Z,6.80
2022-11-16T17:08:38.883Z,6.70
2022-11-16T17:11:06.264Z,6.50
2022-11-16T17:13:33.933Z,6.40
2022-11-16T17:16:04.811Z,6.40
2022-11-16T17:18:32.076Z,6.40
2022-11-16T17:21:04.735Z,6.30
2022-11-16T17:23:32.454Z,6.30
2022-11-16T17:26:07.019Z,6.40
2022-11-16T17:28:34.851Z,6.40
2022-11-16T17:31:03.816Z,6.40
2022-11-16T17:33:40.736Z,6.30
2022-11-16T17:36:12.888Z,6.30
2022-11-16T17:38:40.368Z,6.30
2022-11-16T17:41:13.300Z,6.20
2022-11-16T17:43:42.183Z,6.20
2022-11-16T17:46:15.000Z,6.30
2022-11-16T17:48:44.901Z,6.30
2022-11-16T17:51:14.352Z,6.20
2022-11-16T17:53:44.173Z,6.10
2022-11-16T17:56:13.756Z,6.00
2022-11-16T17:58:41.356Z,6.00
2022-11-16T18:01:08.844Z,6.00
2022-11-16T18:04:13.948Z,6.00
2022-11-16T18:06:41.330Z,5.90
2022-11-16T18:09:08.701Z,5.90
2022-11-16T18:11:35.977Z,5.90
2022-11-16T18:14:05.609Z,5.90
2022-11-16T18:16:34.023Z,6.00
2022-11-16T18:19:04.349Z,5.90
2022-11-16T18:21:33.657Z,5.80
2022-11-16T18:24:01.045Z,5.80
2022-11-16T18:26:28.502Z,5.80
2022-11-16T18:28:55.797Z,5.70
2022-11-16T18:31:24.497Z,5.70
2022-11-16T18:33:52.153Z,5.60
2022-11-16T18:36:20.783Z,5.50
2022-11-16T18:38:48.194Z,5.60
2022-11-16T18:41:21.194Z,5.60
2022-11-16T18:43:56.873Z,5.50
2022-11-16T18:46:26.712Z,5.30
2022-11-16T18:48:54.617Z,5.30
2022-11-16T18:51:23.522Z,5.20
2022-11-16T18:53:51.442Z,5.30
2022-11-16T18:56:19.237Z,5.30
2022-11-16T18:58:52.064Z,5.30
2022-11-16T19:01:22.627Z,5.30
2022-11-16T19:03:51.553Z,5.20
2022-11-16T19:06:19.122Z,5.20
2022-11-16T19:08:55.056Z,5.20
2022-11-16T19:11:23.980Z,5.20
2022-11-16T19:13:57.015Z,5.20
2022-11-16T19:16:24.880Z,5.10
2022-11-16T19:18:52.703Z,5.00
2022-11-16T19:21:20.139Z,5.00
2022-11-16T19:23:49.839Z,5.00
2022-11-16T19:26:19.043Z,4.90
2022-11-16T19:28:47.861Z,4.90
2022-11-16T19:31:20.292Z,4.90
2022-11-16T19:33:53.730Z,4.80
2022-11-16T19:36:21.319Z,4.70
2022-11-16T19:38:49.234Z,4.50
2022-11-16T19:41:17.868Z,4.40
2022-11-16T19:43:45.199Z,4.40
2022-11-16T19:46:17.690Z,4.40
2022-11-16T19:48:46.920Z,4.30
2022-11-16T19:51:18.795Z,4.30
2022-11-16T19:53:46.861Z,4.30
2022-11-16T19:56:16.142Z,4.20
2022-11-16T19:58:43.930Z,4.30
2022-11-16T20:01:12.675Z,4.30
2022-11-16T20:04:22.151Z,4.20
2022-11-16T20:06:49.529Z,4.10
2022-11-16T20:09:17.014Z,4.10
2022-11-16T20:11:44.498Z,4.10
2022-11-16T20:14:12.249Z,4.00
2022-11-16T20:16:41.426Z,3.60
2022-11-16T20:19:09.964Z,3.30
2022-11-16T20:21:40.030Z,3.30
2022-11-16T20:24:10.863Z,3.30
2022-11-16T20:26:43.495Z,3.40
2022-11-16T20:29:15.553Z,3.60
2022-11-16T20:31:45.154Z,3.70
2022-11-16T20:34:20.690Z,3.70
2022-11-16T20:36:50.685Z,3.60
2022-11-16T20:39:19.688Z,3.70
2022-11-16T20:41:48.028Z,3.70
2022-11-16T20:44:22.084Z,3.60
2022-11-16T20:46:52.318Z,3.60
2022-11-16T20:49:19.739Z,3.50
2022-11-16T20:51:48.227Z,3.60
2022-11-16T20:54:15.543Z,3.50
2022-11-16T20:56:44.353Z,3.50
2022-11-16T20:59:11.686Z,3.60
2022-11-16T21:01:41.325Z,3.80
2022-11-16T21:04:13.244Z,3.90
2022-11-16T21:06:40.601Z,4.10
2022-11-16T21:09:10.531Z,4.00
2022-11-16T21:11:56.651Z,3.90
2022-11-16T21:14:24.016Z,3.50
2022-11-16T21:16:51.424Z,3.00
2022-11-16T21:19:18.759Z,2.90
2022-11-16T21:21:46.038Z,2.60
2022-11-16T21:24:13.309Z,2.60
2022-11-16T21:26:40.596Z,2.60
2022-11-16T21:29:07.899Z,2.80
2022-11-16T21:31:36.876Z,3.00
2022-11-16T21:34:10.530Z,3.10
2022-11-16T21:36:37.836Z,3.10
2022-11-16T21:39:05.200Z,3.20
2022-11-16T21:41:32.548Z,3.20
2022-11-16T21:43:59.881Z,3.30
2022-11-16T21:46:27.606Z,3.10
2022-11-16T21:48:56.340Z,2.70
2022-11-16T21:51:26.639Z,2.30
2022-11-16T21:53:54.562Z,2.20
2022-11-16T21:56:24.803Z,2.30
2022-11-16T21:58:53.342Z,2.20
2022-11-16T22:01:22.019Z,2.30
2022-11-16T22:04:46.089Z,2.50
2022-11-16T22:07:35.875Z,2.70
2022-11-16T22:10:09.126Z,2.80
2022-11-16T22:12:37.220Z,3.10
2022-11-16T22:15:07.001Z,3.30
2022-11-16T22:17:34.652Z,3.50
2022-11-16T22:20:02.005Z,3.40
2022-11-16T22:22:29.302Z,3.30
2022-11-16T22:24:56.598Z,3.00
2022-11-16T22:27:24.033Z,2.70
2022-11-16T22:29:51.402Z,2.30
2022-11-16T22:32:18.727Z,2.10
2022-11-16T22:35:28.318Z,2.10
2022-11-16T22:37:56.013Z,2.10
2022-11-16T22:40:23.270Z,2.20
2022-11-16T22:42:50.561Z,2.20
2022-11-16T22:45:17.866Z,2.30
2022-11-16T22:47:45.183Z,2.30
2022-11-16T22:50:12.583Z,2.20
2022-11-16T22:52:39.871Z,1.90
2022-11-16T22:55:07.581Z,1.80
2022-11-16T22:57:35.059Z,1.90
2022-11-16T23:00:03.807Z,1.80
2022-11-16T23:02:31.892Z,1.90
2022-11-16T23:06:07.220Z,2.10
2022-11-16T23:08:35.622Z,2.40
2022-11-16T23:11:32.816Z,2.80
2022-11-16T23:14:19.352Z,2.80
2022-11-16T23:16:47.695Z,2.60
2022-11-16T23:19:38.088Z,2.30
2022-11-16T23:22:44.900Z,2.10
2022-11-16T23:25:30.946Z,1.90
2022-11-16T23:28:08.700Z,1.80
2022-11-16T23:30:36.587Z,1.60
2022-11-16T23:33:04.316Z,1.60
2022-11-16T23:36:08.585Z,1.60
2022-11-16T23:38:35.881Z,1.60
2022-11-16T23:41:23.305Z,1.50
2022-11-16T23:44:00.272Z,1.50
2022-11-16T23:46:30.656Z,1.60
2022-11-16T23:48:58.516Z,1.70
2022-11-16T23:51:25.990Z,2.00
2022-11-16T23:53:54.156Z,2.10
2022-11-16T23:56:22.151Z,2.10
2022-11-16T23:58:49.574Z,1.90
